createdAt,value
2019-05-03T00:02:25.657Z,14.93
2019-05-03T00:04:55.914Z,15.72
2019-05-03T00:07:24.410Z,16.05
2019-05-03T00:09:52.913Z,14.95
2019-05-03T00:12:22.138Z,15.32
2019-05-03T00:14:52.447Z,14.50
2019-05-03T00:17:21.898Z,15.07
2019-05-03T00:19:52.631Z,15.30
2019-05-03T00:22:21.697Z,15.17
2019-05-03T00:25:03.089Z,15.83
2019-05-03T00:27:21.815Z,14.53
2019-05-03T00:29:52.257Z,14.77
2019-05-03T00:32:21.655Z,14.60
2019-05-03T00:34:52.366Z,13.93
2019-05-03T00:37:22.611Z,15.35
2019-05-03T00:39:55.658Z,15.38
2019-05-03T00:42:24.074Z,14.00
2019-05-03T00:44:52.505Z,14.60
2019-05-03T00:47:22.158Z,14.43
2019-05-03T00:49:51.861Z,13.48
2019-05-03T00:52:22.248Z,14.13
2019-05-03T00:54:52.745Z,13.97
2019-05-03T00:57:22.581Z,14.28
2019-05-03T00:59:52.796Z,14.25
2019-05-03T01:02:22.335Z,14.70
2019-05-03T01:04:51.778Z,15.58
2019-05-03T01:07:22.119Z,13.75
2019-05-03T01:09:51.807Z,16.45
2019-05-03T01:12:21.942Z,13.90
2019-05-03T01:14:52.151Z,15.08
2019-05-03T01:17:22.419Z,15.55
2019-05-03T01:19:52.171Z,15.48
2019-05-03T01:22:22.455Z,14.38
2019-05-03T01:24:51.828Z,15.43
2019-05-03T01:27:22.028Z,15.05
2019-05-03T01:32:33.090Z,15.67
2019-05-03T01:35:03.293Z,15.85
2019-05-03T01:37:32.046Z,16.83
2019-05-03T01:40:02.409Z,14.95
2019-05-03T01:42:32.148Z,15.55
2019-05-03T01:45:01.826Z,14.63
2019-05-03T01:47:32.612Z,15.25
2019-05-03T01:50:17.615Z,16.90
2019-05-03T01:52:47.703Z,15.68
2019-05-03T01:55:16.152Z,15.23
2019-05-03T01:57:44.638Z,16.07
2019-05-03T02:00:15.449Z,17.87
2019-05-03T02:02:45.510Z,18.65
2019-05-03T02:05:18.411Z,18.42
2019-05-03T02:07:48.609Z,17.70
2019-05-03T02:10:17.377Z,17.40
2019-05-03T02:12:45.802Z,17.07
2019-05-03T02:15:14.310Z,17.87
2019-05-03T02:17:42.812Z,16.15
2019-05-03T02:20:12.643Z,18.17
2019-05-03T02:22:42.798Z,19.15
2019-05-03T02:25:12.399Z,19.25
2019-05-03T02:27:42.265Z,17.57
2019-05-03T02:30:14.254Z,18.05
2019-05-03T02:32:43.888Z,17.40
2019-05-03T02:35:13.996Z,17.98
2019-05-03T02:37:44.452Z,19.00
2019-05-03T02:40:13.261Z,20.45
2019-05-03T02:42:46.120Z,20.45
2019-05-03T02:45:18.500Z,19.98
2019-05-03T02:47:48.679Z,21.25
2019-05-03T02:50:18.614Z,20.40
2019-05-03T02:52:47.073Z,20.60
2019-05-03T02:55:16.299Z,20.45
2019-05-03T02:57:46.570Z,23.38
2019-05-03T03:00:16.428Z,22.70
2019-05-03T03:02:45.700Z,23.07
2019-05-03T03:05:16.665Z,23.47
2019-05-03T03:07:46.259Z,23.07
2019-05-03T03:10:16.167Z,22.67
2019-05-03T03:12:46.740Z,23.52
2019-05-03T03:15:16.181Z,23.63
2019-05-03T03:17:46.944Z,24.37
2019-05-03T03:20:16.309Z,25.90
2019-05-03T03:22:45.897Z,24.00
2019-05-03T03:25:17.663Z,23.47
2019-05-03T03:27:48.446Z,24.07
2019-05-03T03:30:39.560Z,26.35
2019-05-03T03:33:11.120Z,25.25
2019-05-03T03:35:41.767Z,25.05
2019-05-03T03:38:10.266Z,24.65
2019-05-03T03:40:39.681Z,28.52
2019-05-03T03:43:10.395Z,24.80
2019-05-03T03:45:39.374Z,25.72
2019-05-03T03:48:09.942Z,27.58
2019-05-03T03:50:41.163Z,26.42
2019-05-03T03:53:11.140Z,25.02
2019-05-03T03:55:45.652Z,27.20
2019-05-03T03:58:17.704Z,28.83
2019-05-03T04:00:46.191Z,24.73
2019-05-03T04:03:15.796Z,26.77
2019-05-03T04:05:46.490Z,26.10
2019-05-03T04:08:16.258Z,25.68
2019-05-03T04:10:46.305Z,27.37
2019-05-03T04:13:15.955Z,26.67
2019-05-03T04:15:49.135Z,26.62
2019-05-03T04:18:21.741Z,26.00
2019-05-03T04:20:50.238Z,30.32
2019-05-03T04:23:19.270Z,27.55
2019-05-03T04:25:48.532Z,27.90
2019-05-03T04:28:17.022Z,29.37
2019-05-03T04:30:45.973Z,28.60
2019-05-03T04:33:16.006Z,28.47
2019-05-03T04:35:46.498Z,30.50
2019-05-03T04:38:16.198Z,28.27
2019-05-03T04:40:45.471Z,28.17
2019-05-03T04:43:16.276Z,28.57
2019-05-03T04:45:45.832Z,26.68
2019-05-03T04:48:16.025Z,28.00
2019-05-03T04:50:45.641Z,28.73
2019-05-03T04:53:16.169Z,31.12
2019-05-03T04:55:46.813Z,30.40
2019-05-03T04:58:16.152Z,30.32
2019-05-03T05:00:46.472Z,28.23
2019-05-03T05:03:15.255Z,27.63
2019-05-03T05:05:45.333Z,27.10
2019-05-03T05:08:16.017Z,24.85
2019-05-03T05:10:45.413Z,27.90
2019-05-03T05:13:15.808Z,26.37
2019-05-03T05:15:45.955Z,29.55
2019-05-03T05:18:16.556Z,26.42
2019-05-03T05:20:46.793Z,28.87
2019-05-03T05:23:15.215Z,25.67
2019-05-03T05:25:45.411Z,28.07
2019-05-03T05:28:15.518Z,26.93
2019-05-03T05:30:44.427Z,25.43
2019-05-03T05:33:21.879Z,26.73
2019-05-03T05:35:51.329Z,27.62
2019-05-03T05:38:19.846Z,28.53
2019-05-03T05:40:48.818Z,27.97
2019-05-03T05:43:17.239Z,25.55
2019-05-03T05:45:45.725Z,26.97
2019-05-03T05:48:18.517Z,27.58
2019-05-03T05:50:46.922Z,24.65
2019-05-03T05:53:15.385Z,24.83
2019-05-03T05:56:00.377Z,26.97
2019-05-03T05:58:36.135Z,26.80
2019-05-03T06:01:09.061Z,23.77
2019-05-03T06:03:37.521Z,27.05
2019-05-03T06:06:07.674Z,24.53
2019-05-03T06:08:41.094Z,24.40
2019-05-03T06:11:14.858Z,26.33
2019-05-03T06:13:54.620Z,23.73
2019-05-03T06:16:27.426Z,26.20
2019-05-03T06:18:57.542Z,26.40
2019-05-03T06:21:36.166Z,25.30
2019-05-03T06:24:21.158Z,24.87
2019-05-03T06:26:56.811Z,26.40
2019-05-03T06:29:25.270Z,24.47
2019-05-03T06:32:10.027Z,25.93
2019-05-03T06:34:38.770Z,26.52
2019-05-03T06:37:08.839Z,26.15
2019-05-03T06:39:37.275Z,28.38
2019-05-03T06:42:10.055Z,27.27
2019-05-03T06:44:35.914Z,25.48
2019-05-03T06:47:08.798Z,26.17
2019-05-03T06:49:34.687Z,25.02
2019-05-03T06:52:05.787Z,26.37
2019-05-03T06:54:34.675Z,27.13
2019-05-03T06:57:09.207Z,27.20
2019-05-03T06:59:42.487Z,26.02
2019-05-03T07:02:18.537Z,26.27
2019-05-03T07:05:05.087Z,25.40
2019-05-03T07:07:38.152Z,29.53
2019-05-03T07:10:20.980Z,26.70
2019-05-03T07:12:59.562Z,27.55
2019-05-03T07:15:28.361Z,27.57
2019-05-03T07:17:56.863Z,26.48
2019-05-03T07:20:25.775Z,27.75
2019-05-03T07:22:55.749Z,26.23
2019-05-03T07:25:25.577Z,26.23
2019-05-03T07:27:55.493Z,26.17
2019-05-03T07:30:24.770Z,23.90
2019-05-03T07:32:55.155Z,24.18
2019-05-03T07:35:25.190Z,25.35
2019-05-03T07:37:55.364Z,25.48
2019-05-03T07:40:25.364Z,25.80
2019-05-03T07:42:55.418Z,25.00
2019-05-03T07:45:25.452Z,23.50
2019-05-03T07:47:55.930Z,23.67
2019-05-03T07:50:25.814Z,24.98
2019-05-03T07:52:55.618Z,23.80
2019-05-03T07:55:42.209Z,21.07
2019-05-03T07:58:12.277Z,24.47
2019-05-03T08:00:40.705Z,21.35
2019-05-03T08:03:09.255Z,20.85
2019-05-03T08:05:37.694Z,20.48
2019-05-03T08:08:06.122Z,21.52
2019-05-03T08:10:34.752Z,20.68
2019-05-03T08:13:04.649Z,20.27
2019-05-03T08:15:34.810Z,20.15
2019-05-03T08:18:04.839Z,20.57
2019-05-03T08:20:35.020Z,20.80
2019-05-03T08:23:05.257Z,20.97
2019-05-03T08:25:35.449Z,20.02
2019-05-03T08:28:05.315Z,20.05
2019-05-03T08:30:51.414Z,19.60
2019-05-03T08:33:21.458Z,20.17
2019-05-03T08:35:51.916Z,20.72
2019-05-03T08:38:20.359Z,21.07
2019-05-03T08:40:48.925Z,20.55
2019-05-03T08:43:17.522Z,20.72
2019-05-03T08:45:46.001Z,20.32
2019-05-03T08:48:15.050Z,20.02
2019-05-03T08:50:45.079Z,20.12
2019-05-03T08:53:15.318Z,21.55
2019-05-03T08:55:44.981Z,19.32
2019-05-03T08:58:15.380Z,20.57
2019-05-03T09:00:45.517Z,21.35
2019-05-03T09:03:14.406Z,21.12
2019-05-03T09:05:45.326Z,17.77
2019-05-03T09:08:15.538Z,18.52
2019-05-03T09:10:47.411Z,18.62
2019-05-03T09:13:20.464Z,18.62
2019-05-03T09:15:50.521Z,17.15
2019-05-03T09:18:19.159Z,17.57
2019-05-03T09:20:47.674Z,16.25
2019-05-03T09:23:16.723Z,16.67
2019-05-03T09:25:45.921Z,17.35
2019-05-03T09:28:15.123Z,18.30
2019-05-03T09:30:44.737Z,15.45
2019-05-03T09:33:15.143Z,12.93
2019-05-03T09:35:45.257Z,8.30
2019-05-03T09:38:15.010Z,6.85
2019-05-03T09:40:45.363Z,6.12
2019-05-03T09:43:15.041Z,4.62
2019-05-03T09:45:45.174Z,4.60
2019-05-03T09:48:15.020Z,4.65
2019-05-03T09:50:45.191Z,4.78
2019-05-03T09:53:15.419Z,3.72
2019-05-03T09:55:44.847Z,3.33
2019-05-03T09:58:15.297Z,2.90
2019-05-03T10:00:44.647Z,3.08
2019-05-03T10:03:14.892Z,2.70
2019-05-03T10:05:45.656Z,2.45
2019-05-03T10:08:15.597Z,2.70
2019-05-03T10:10:57.381Z,3.20
2019-05-03T10:13:27.150Z,3.40
2019-05-03T10:15:55.826Z,3.50
2019-05-03T10:18:25.521Z,3.35
2019-05-03T10:20:56.181Z,3.20
2019-05-03T10:23:25.999Z,4.22
2019-05-03T10:25:55.196Z,3.47
2019-05-03T10:28:25.137Z,3.77
2019-05-03T10:30:54.741Z,3.37
2019-05-03T10:33:27.586Z,3.67
2019-05-03T10:35:56.091Z,4.22
2019-05-03T10:38:24.713Z,4.10
2019-05-03T10:40:54.981Z,3.87
2019-05-03T10:43:24.767Z,3.98
2019-05-03T10:45:55.664Z,4.85
2019-05-03T10:48:24.838Z,4.70
2019-05-03T10:50:53.587Z,5.20
2019-05-03T10:53:23.645Z,5.92
2019-05-03T10:56:13.218Z,5.58
2019-05-03T10:58:41.383Z,6.10
2019-05-03T11:01:09.875Z,6.67
2019-05-03T11:03:38.314Z,6.40
2019-05-03T11:06:06.836Z,7.30
2019-05-03T11:08:35.252Z,7.53
2019-05-03T11:11:05.801Z,7.33
2019-05-03T11:13:34.960Z,7.40
2019-05-03T11:16:05.508Z,6.92
2019-05-03T11:18:34.547Z,7.95
2019-05-03T11:21:05.144Z,7.62
2019-05-03T11:23:34.688Z,7.30
2019-05-03T11:26:03.235Z,8.25
2019-05-03T11:28:31.656Z,7.03
2019-05-03T11:31:02.487Z,7.80
2019-05-03T11:33:32.714Z,6.45
2019-05-03T11:36:04.384Z,7.05
2019-05-03T11:38:34.933Z,6.33
2019-05-03T11:41:04.906Z,5.62
2019-05-03T11:43:34.993Z,4.67
2019-05-03T11:46:03.806Z,4.62
2019-05-03T11:48:32.238Z,5.75
2019-05-03T11:53:38.756Z,5.15
2019-05-03T11:56:07.248Z,5.03
2019-05-03T11:58:35.703Z,5.12
2019-05-03T12:01:14.890Z,5.62
2019-05-03T12:03:45.045Z,5.60
2019-05-03T12:06:15.630Z,5.53
2019-05-03T12:08:44.742Z,5.40
2019-05-03T12:11:15.115Z,5.35
2019-05-03T12:13:45.728Z,5.17
2019-05-03T12:16:20.278Z,5.28
2019-05-03T12:18:50.131Z,4.97
2019-05-03T12:21:17.728Z,5.30
2019-05-03T12:23:45.980Z,5.15
2019-05-03T12:26:17.322Z,4.65
2019-05-03T12:28:45.394Z,4.20
2019-05-03T12:31:29.750Z,3.80
2019-05-03T12:33:45.959Z,4.42
2019-05-03T12:36:15.450Z,3.80
2019-05-03T12:38:44.024Z,3.33
2019-05-03T12:41:12.449Z,3.50
2019-05-03T12:43:40.987Z,3.42
2019-05-03T12:46:09.402Z,3.98
2019-05-03T12:48:37.843Z,4.03
2019-05-03T12:51:07.854Z,3.67
2019-05-03T12:53:36.938Z,4.05
2019-05-03T12:56:11.159Z,3.33
2019-05-03T12:58:52.003Z,3.25
2019-05-03T13:01:40.236Z,3.85
2019-05-03T13:04:08.742Z,3.47
2019-05-03T13:06:41.551Z,3.70
2019-05-03T13:09:10.711Z,3.95
2019-05-03T13:11:51.826Z,3.98
2019-05-03T13:14:10.926Z,3.90
2019-05-03T13:16:39.350Z,3.92
2019-05-03T13:19:07.889Z,3.85
2019-05-03T13:21:36.311Z,4.00
2019-05-03T13:24:05.466Z,4.65
2019-05-03T13:28:00.002Z,4.25
2019-05-03T13:30:28.413Z,4.00
2019-05-03T13:32:56.870Z,5.17
2019-05-03T13:35:25.653Z,4.53
2019-05-03T13:37:55.672Z,4.37
2019-05-03T13:40:25.044Z,4.58
2019-05-03T13:43:00.487Z,3.95
2019-05-03T13:45:24.732Z,2.70
2019-05-03T13:47:55.052Z,2.90
2019-05-03T13:50:24.546Z,2.58
2019-05-03T13:52:53.115Z,2.22
2019-05-03T13:55:21.550Z,1.87
2019-05-03T13:57:50.136Z,1.60
2019-05-03T14:00:18.886Z,1.27
2019-05-03T14:02:47.303Z,1.67
2019-05-03T14:05:15.789Z,1.50
2019-05-03T14:07:44.704Z,1.82
2019-05-03T14:10:13.541Z,1.40
2019-05-03T14:12:42.020Z,1.30
2019-05-03T14:15:10.498Z,1.45
2019-05-03T14:17:38.914Z,1.25
2019-05-03T14:20:10.738Z,1.22
2019-05-03T14:22:43.350Z,1.00
2019-05-03T14:25:11.856Z,1.00
2019-05-03T14:27:40.373Z,1.22
2019-05-03T14:30:09.467Z,1.10
2019-05-03T14:32:37.892Z,1.10
2019-05-03T14:35:06.787Z,1.20
2019-05-03T14:37:37.819Z,1.22
2019-05-03T14:42:33.738Z,1.30
2019-05-03T14:45:04.417Z,1.17
2019-05-03T14:47:32.442Z,1.10
2019-05-03T14:50:01.080Z,1.10
2019-05-03T14:52:29.483Z,1.40
2019-05-03T14:55:02.333Z,1.10
2019-05-03T14:57:32.458Z,1.30
2019-05-03T15:00:05.290Z,1.40
2019-05-03T15:02:43.633Z,1.22
2019-05-03T15:05:08.660Z,1.25
2019-05-03T15:07:37.083Z,1.10
2019-05-03T15:10:07.115Z,1.40
2019-05-03T15:12:36.065Z,1.20
2019-05-03T15:15:07.094Z,1.30
2019-05-03T15:17:35.842Z,1.40
2019-05-03T15:20:06.401Z,1.50
2019-05-03T15:22:34.842Z,1.45
2019-05-03T15:25:05.163Z,1.40
2019-05-03T15:27:35.288Z,1.72
2019-05-03T15:30:06.031Z,1.87
2019-05-03T15:32:35.349Z,1.70
2019-05-03T15:35:06.195Z,1.90
2019-05-03T15:37:35.781Z,2.22
2019-05-03T15:40:06.619Z,1.90
2019-05-03T15:42:35.581Z,1.70
2019-05-03T15:45:25.490Z,1.82
2019-05-03T15:48:01.246Z,1.67
2019-05-03T15:50:29.824Z,1.55
2019-05-03T15:52:58.322Z,1.80
2019-05-03T15:55:26.805Z,1.90
2019-05-03T15:57:55.336Z,1.70
2019-05-03T16:00:24.493Z,1.57
2019-05-03T16:02:54.756Z,1.75
2019-05-03T16:05:24.945Z,1.52
2019-05-03T16:07:55.293Z,1.77
2019-05-03T16:10:24.928Z,1.92
2019-05-03T16:12:54.486Z,2.10
2019-05-03T16:15:24.657Z,2.05
2019-05-03T16:17:54.720Z,1.98
2019-05-03T16:20:25.067Z,2.00
2019-05-03T16:22:54.430Z,1.95
2019-05-03T16:25:25.157Z,2.10
2019-05-03T16:28:01.009Z,2.20
2019-05-03T16:30:31.117Z,2.30
2019-05-03T16:32:59.525Z,2.37
2019-05-03T16:35:27.964Z,2.45
2019-05-03T16:37:56.441Z,2.90
2019-05-03T16:40:25.285Z,2.77
2019-05-03T16:42:53.861Z,2.52
2019-05-03T16:45:22.280Z,3.75
2019-05-03T16:47:50.776Z,3.90
2019-05-03T16:50:19.414Z,3.62
2019-05-03T16:52:47.852Z,2.90
2019-05-03T16:55:16.410Z,3.27
2019-05-03T16:57:45.043Z,2.98
2019-05-03T17:00:17.529Z,2.65
2019-05-03T17:02:44.724Z,2.60
2019-05-03T17:05:17.537Z,2.55
2019-05-03T17:08:04.611Z,4.40
2019-05-03T17:10:37.328Z,3.50
2019-05-03T17:13:05.740Z,2.95
2019-05-03T17:15:35.306Z,2.70
2019-05-03T17:18:04.369Z,2.77
2019-05-03T17:20:34.746Z,3.65
2019-05-03T17:23:04.494Z,2.95
2019-05-03T17:25:35.136Z,3.33
2019-05-03T17:28:04.983Z,2.77
2019-05-03T17:30:36.730Z,2.98
2019-05-03T17:33:04.560Z,2.83
2019-05-03T17:35:34.588Z,3.12
2019-05-03T17:38:05.178Z,3.25
2019-05-03T17:40:51.381Z,3.12
2019-05-03T17:43:28.206Z,3.70
2019-05-03T17:45:58.298Z,3.15
2019-05-03T17:48:26.719Z,3.30
2019-05-03T17:50:55.221Z,3.52
2019-05-03T17:53:37.185Z,3.50
2019-05-03T17:56:18.964Z,3.50
2019-05-03T17:58:49.139Z,3.58
2019-05-03T18:01:25.250Z,3.87
2019-05-03T18:04:08.759Z,3.62
2019-05-03T18:06:38.649Z,3.58
2019-05-03T18:09:14.907Z,3.27
2019-05-03T18:11:54.085Z,3.40
2019-05-03T18:14:22.610Z,3.90
2019-05-03T18:16:51.058Z,3.50
2019-05-03T18:19:19.533Z,4.03
2019-05-03T18:21:49.170Z,3.60
2019-05-03T18:24:17.588Z,3.62
2019-05-03T18:26:46.089Z,3.85
2019-05-03T18:29:14.811Z,4.00
2019-05-03T18:31:44.598Z,8.23
2019-05-03T18:34:19.726Z,5.15
2019-05-03T18:36:45.046Z,4.97
2019-05-03T18:41:38.899Z,4.50
2019-05-03T18:44:09.035Z,4.10
2019-05-03T18:46:41.733Z,4.08
2019-05-03T18:49:10.191Z,4.35
2019-05-03T18:51:38.661Z,4.40
2019-05-03T18:54:07.385Z,4.22
2019-05-03T18:56:35.940Z,4.03
2019-05-03T18:59:05.087Z,4.62
2019-05-03T19:01:34.730Z,4.08
2019-05-03T19:04:15.612Z,3.80
2019-05-03T19:06:45.140Z,4.10
2019-05-03T19:09:15.589Z,4.10
2019-05-03T19:11:51.328Z,4.30
2019-05-03T19:14:25.498Z,4.55
2019-05-03T19:17:10.742Z,4.10
2019-05-03T19:19:40.981Z,4.10
2019-05-03T19:22:09.482Z,4.40
2019-05-03T19:24:38.120Z,4.08
2019-05-03T19:27:07.271Z,4.58
2019-05-03T19:29:36.223Z,4.80
2019-05-03T19:32:04.762Z,4.35
2019-05-03T19:34:46.790Z,5.00
2019-05-03T19:37:05.149Z,4.90
2019-05-03T19:39:34.561Z,4.80
2019-05-03T19:42:03.274Z,5.20
2019-05-03T19:44:31.710Z,5.10
2019-05-03T19:47:00.134Z,4.63
2019-05-03T19:49:28.578Z,5.42
2019-05-03T19:51:57.006Z,5.80
2019-05-03T19:54:25.440Z,5.30
2019-05-03T19:56:55.680Z,5.17
2019-05-03T19:59:43.942Z,5.20
2019-05-03T20:02:17.009Z,4.97
2019-05-03T20:05:05.683Z,4.70
2019-05-03T20:07:37.727Z,4.65
2019-05-03T20:10:08.129Z,4.90
2019-05-03T20:12:36.567Z,4.62
2019-05-03T20:15:06.376Z,4.27
2019-05-03T20:17:34.795Z,4.80
2019-05-03T20:20:05.061Z,4.28
2019-05-03T20:22:35.094Z,4.73
2019-05-03T20:25:04.760Z,5.00
2019-05-03T20:27:35.037Z,4.75
2019-05-03T20:30:05.751Z,4.67
2019-05-03T20:32:34.587Z,4.97
2019-05-03T20:35:12.940Z,5.15
2019-05-03T20:37:35.134Z,4.50
2019-05-03T20:40:05.287Z,5.10
2019-05-03T20:42:54.263Z,5.05
2019-05-03T20:45:36.016Z,4.85
2019-05-03T20:48:06.376Z,5.25
2019-05-03T20:50:35.289Z,5.15
2019-05-03T20:53:05.367Z,5.33
2019-05-03T20:55:34.706Z,4.95
2019-05-03T20:58:03.258Z,5.10
2019-05-03T21:00:31.753Z,5.50
2019-05-03T21:03:00.232Z,4.92
2019-05-03T21:05:32.900Z,5.40
2019-05-03T21:07:58.806Z,4.83
2019-05-03T21:10:27.278Z,5.28
2019-05-03T21:12:55.702Z,5.00
2019-05-03T21:15:41.751Z,5.00
2019-05-03T21:18:17.345Z,5.28
2019-05-03T21:20:50.130Z,5.45
2019-05-03T21:23:20.215Z,5.12
2019-05-03T21:26:10.724Z,5.28
2019-05-03T21:28:34.477Z,5.55
2019-05-03T21:31:02.506Z,4.85
2019-05-03T21:33:30.976Z,5.17
2019-05-03T21:35:59.410Z,5.20
2019-05-03T21:38:27.905Z,4.97
2019-05-03T21:40:56.362Z,5.07
2019-05-03T21:43:25.710Z,5.47
2019-05-03T21:45:55.842Z,5.17
2019-05-03T21:48:28.670Z,4.53
2019-05-03T21:50:57.106Z,5.10
2019-05-03T21:53:25.535Z,4.83
2019-05-03T21:55:54.010Z,5.17
2019-05-03T21:58:22.446Z,4.90
2019-05-03T22:00:58.090Z,5.10
2019-05-03T22:03:26.532Z,5.00
2019-05-03T22:05:57.886Z,5.43
2019-05-03T22:08:25.133Z,5.00
2019-05-03T22:10:55.298Z,5.10
2019-05-03T22:13:24.583Z,5.80
2019-05-03T22:15:58.406Z,5.60
2019-05-03T22:18:28.703Z,5.17
2019-05-03T22:20:58.769Z,5.00
2019-05-03T22:23:31.626Z,5.30
2019-05-03T22:26:01.678Z,5.30
2019-05-03T22:28:30.153Z,5.28
2019-05-03T22:30:58.611Z,5.60
2019-05-03T22:33:27.025Z,5.75
2019-05-03T22:36:07.586Z,5.23
2019-05-03T22:38:25.596Z,5.50
2019-05-03T22:40:55.281Z,5.67
2019-05-03T22:43:25.351Z,5.70
2019-05-03T22:45:54.781Z,5.30
2019-05-03T22:48:25.146Z,5.53
2019-05-03T22:50:55.544Z,5.77
2019-05-03T22:53:25.377Z,6.22
2019-05-03T22:55:54.337Z,6.10
2019-05-03T22:58:24.864Z,5.70
2019-05-03T23:00:54.944Z,6.03
2019-05-03T23:03:25.006Z,6.03
2019-05-03T23:05:54.836Z,6.00
2019-05-03T23:08:25.164Z,5.60
2019-05-03T23:10:54.706Z,5.40
2019-05-03T23:13:24.949Z,5.83
2019-05-03T23:15:54.664Z,5.50
2019-05-03T23:18:24.659Z,5.43
2019-05-03T23:21:01.023Z,6.10
2019-05-03T23:23:47.160Z,5.73
2019-05-03T23:26:15.642Z,6.40
2019-05-03T23:28:44.682Z,5.53
2019-05-03T23:31:14.728Z,6.60
2019-05-03T23:33:45.286Z,6.10
2019-05-03T23:36:15.391Z,6.37
2019-05-03T23:38:45.226Z,6.33
2019-05-03T23:41:15.265Z,6.42
2019-05-03T23:43:45.090Z,6.10
2019-05-03T23:46:15.278Z,5.93
2019-05-03T23:48:44.673Z,6.17
2019-05-03T23:51:14.970Z,6.03
2019-05-03T23:53:44.649Z,6.33
2019-05-03T23:56:17.489Z,6.20
2019-05-03T23:58:45.907Z,6.10
